Garvin, OK

6:48 AM CDT on June 03, 2015 (GMT -0500)
Cox | | Change Station
CLOSE
Current Station
Airport
Location: Paris,
Elevation: 548 ft
Nearby Weather Stations
Active Advisory: Flood Warning

Elev 548 ft 33.64 °N, 95.45 °W | Updated 13 minutes ago

Clear
Clear
64 °F
Feels Like 64 °F
N
7
Wind Variable Wind from East

Today
High -- | Low -- °F
--% Chance of Precip.
Yesterday
High -- | Low -- °F
Precip. -- in
6:09 AM 8:26 PM
Full, 99% visible
Pressure 29.97 in
Visibility 10.0 miles
Clouds Clear
Dew Point 61 °F
Humidity 88%
Rainfall 0.00 in
Snow Depth Not available.
UV 0 out of 12
Pollen 7.30 out of 12
Air Quality Not available.
Flu Activity Sporadic
METAR KPRX 031135Z 10006KT 10SM CLR 18/16 A2997 RMK AO1

More Conditions Fewer Conditions

Pressure 29.97 in
Visibility 10.0 miles
Clouds Clear
Dew Point 61 °F
Humidity 88%
Rainfall 0.00 in
Snow Depth Not available.
UV 0 out of 12
Pollen 7.30 out of 12
Air Quality Not available.
Flu Activity Sporadic
METAR KPRX 031135Z 10006KT 10SM CLR 18/16 A2997 RMK AO1

More Conditions Fewer Conditions

10-Day Weather Forecast

×

Almanac

Astronomy

Jun. 03, 2015 Rise Set
Actual Time
Civil Twilight
Nautical Twilight
Astronomical Twilight
Moon
Length of Visible Light
Length of Day
Tomorrow will be .
, % of the Moon is Illuminated

Today's Extremes

State Highs State Lows

Community

WunderPhotos

Upload Photos

1,826,205 photos uploaded!

WunderBlogs® & News

Nearby

Air Quality

  Air Quality AQ Index Pollutant
Not available.

Snow Depth

Station Depth Elevation

Earthquake Activity

City Distance Mag. Time & Date
Minimum magnitude displayed is 2.5.

Coastal Water Temperatures

Place Temperature

Stations

Nearby Weather Stations

Station Location Temp. Windchill Dew Point Humidity Wind Precip. Elev Updated Type
                   
Flood Warning
Statement as of 10:38 AM CDT on June 02, 2015

The Flood Warning continues for
the Red River near DeKalb.
* Until further notice... or until the warning is cancelled.
* At 10:00 am Tuesday the stage was 34.5 feet.
* Major flooding is occurring and major flooding is forecast.
* Flood stage is 24.0 feet.
* Forecast... the river will continue rising to near 35.0 feet by this
afternoon. Additional rises remain possible thereafter.
* Impact... at 34.5 feet... near record flooding of some twenty thousand
acres will continue. Severe backwater flooding of Pecan and Nolan
bayous occurs. The U.S. Highway 259 bridge approaches flood. Texas
Highway bridges 8 and 37 will likely flood and close. Move
livestock and equipment to higher ground.


Lat... Lon 3397 9516 3367 9448 3359 9448 3367 9475 3391 9516